createdAt,value
2022-11-20T00:02:01.702Z,7.00
2022-11-20T00:04:29.764Z,7.00
2022-11-20T00:06:58.138Z,7.00
2022-11-20T00:09:26.290Z,6.90
2022-11-20T00:11:54.557Z,6.70
2022-11-20T00:14:22.826Z,6.80
2022-11-20T00:16:52.295Z,6.60
2022-11-20T00:19:20.621Z,6.70
2022-11-20T00:21:52.271Z,6.70
2022-11-20T00:24:20.334Z,6.90
2022-11-20T00:26:48.465Z,6.90
2022-11-20T00:29:17.583Z,7.00
2022-11-20T00:31:45.570Z,6.90
2022-11-20T00:34:15.699Z,6.90
2022-11-20T00:36:43.941Z,6.80
2022-11-20T00:39:12.121Z,6.90
2022-11-20T00:41:40.183Z,6.80
2022-11-20T00:44:08.576Z,6.90
2022-11-20T00:46:36.729Z,6.90
2022-11-20T00:49:04.907Z,7.00
2022-11-20T00:51:34.506Z,7.00
2022-11-20T00:54:03.383Z,7.10
2022-11-20T00:56:31.383Z,7.00
2022-11-20T00:59:01.106Z,6.80
2022-11-20T01:01:30.303Z,6.90
2022-11-20T01:03:59.185Z,6.60
2022-11-20T01:06:28.681Z,6.50
2022-11-20T01:08:58.723Z,6.60
2022-11-20T01:11:33.611Z,6.60
2022-11-20T01:14:23.402Z,6.70
2022-11-20T01:17:04.582Z,6.90
2022-11-20T01:19:52.411Z,6.90
2022-11-20T01:22:33.671Z,7.00
2022-11-20T01:25:23.456Z,6.90
2022-11-20T01:28:04.555Z,7.00
2022-11-20T01:30:52.398Z,6.90
2022-11-20T01:33:40.404Z,7.10
2022-11-20T01:36:22.619Z,7.10
2022-11-20T01:39:11.381Z,6.90
2022-11-20T01:42:13.089Z,6.90
2022-11-20T01:45:05.391Z,7.10
2022-11-20T01:47:49.357Z,7.00
2022-11-20T01:50:41.486Z,7.10
2022-11-20T01:53:30.380Z,6.50
2022-11-20T01:56:19.649Z,6.90
2022-11-20T01:59:04.481Z,7.10
2022-11-20T02:01:52.443Z,6.60
2022-11-20T02:04:34.644Z,6.10
2022-11-20T02:07:22.440Z,6.30
2022-11-20T02:10:03.642Z,6.70
2022-11-20T02:13:09.384Z,7.10
2022-11-20T02:15:52.543Z,7.30
2022-11-20T02:18:40.411Z,7.40
2022-11-20T02:21:31.624Z,7.40
2022-11-20T02:24:23.415Z,7.10
2022-11-20T02:27:07.588Z,7.10
2022-11-20T02:29:59.804Z,6.90
2022-11-20T02:32:50.666Z,6.70
2022-11-20T02:35:44.068Z,6.70
2022-11-20T02:38:33.427Z,6.80
2022-11-20T02:41:18.400Z,6.30
2022-11-20T02:44:07.621Z,6.60
2022-11-20T02:47:04.294Z,6.70
2022-11-20T02:49:53.427Z,6.70
2022-11-20T02:52:48.394Z,7.10
2022-11-20T02:55:43.412Z,7.40
2022-11-20T02:58:32.509Z,7.20
2022-11-20T03:01:13.959Z,7.10
2022-11-20T03:04:03.439Z,6.90
2022-11-20T03:06:44.659Z,6.80
2022-11-20T03:09:32.426Z,6.80
2022-11-20T03:12:14.723Z,7.00
2022-11-20T03:15:03.411Z,6.70
2022-11-20T03:17:51.406Z,6.50
2022-11-20T03:20:34.249Z,6.40
2022-11-20T03:23:21.417Z,6.80
2022-11-20T03:26:09.722Z,7.10
2022-11-20T03:29:02.416Z,7.20
2022-11-20T03:31:45.280Z,7.10
2022-11-20T03:34:33.438Z,6.90
2022-11-20T03:37:15.624Z,6.90
2022-11-20T03:40:03.484Z,6.90
2022-11-20T03:42:47.514Z,6.90
2022-11-20T03:45:35.501Z,6.80
2022-11-20T03:48:24.401Z,6.70
2022-11-20T03:51:15.706Z,6.50
2022-11-20T03:54:04.487Z,6.70
2022-11-20T03:56:46.692Z,6.90
2022-11-20T03:59:34.536Z,7.10
2022-11-20T04:02:15.954Z,6.70
2022-11-20T04:05:04.438Z,6.40
2022-11-20T04:07:45.565Z,6.50
2022-11-20T04:10:34.415Z,6.60
2022-11-20T04:13:22.471Z,6.70
2022-11-20T04:16:03.922Z,6.70
2022-11-20T04:18:51.424Z,7.10
2022-11-20T04:21:34.342Z,7.10
2022-11-20T04:24:23.442Z,6.60
2022-11-20T04:27:04.847Z,6.60
2022-11-20T04:29:52.432Z,6.60
2022-11-20T04:32:33.936Z,6.70
2022-11-20T04:35:22.514Z,6.70
2022-11-20T04:38:05.776Z,7.10
2022-11-20T04:40:53.483Z,7.30
2022-11-20T04:43:41.465Z,7.00
2022-11-20T04:46:23.691Z,7.10
2022-11-20T04:49:11.567Z,6.90
2022-11-20T04:51:52.649Z,6.80
2022-11-20T04:54:41.503Z,6.80
2022-11-20T04:57:23.689Z,6.70
2022-11-20T05:00:11.451Z,6.50
2022-11-20T05:02:52.580Z,6.60
2022-11-20T05:05:41.523Z,6.80
2022-11-20T05:08:23.585Z,7.00
2022-11-20T05:11:13.513Z,6.80
2022-11-20T05:14:01.447Z,6.80
2022-11-20T05:16:43.051Z,7.30
2022-11-20T05:19:30.467Z,7.70
2022-11-20T05:22:11.795Z,7.30
2022-11-20T05:24:59.434Z,7.00
2022-11-20T05:27:42.215Z,7.00
2022-11-20T05:30:30.495Z,7.40
2022-11-20T05:33:11.814Z,7.30
2022-11-20T05:36:00.564Z,7.00
2022-11-20T05:38:42.203Z,7.10
2022-11-20T05:41:31.562Z,6.90
2022-11-20T05:44:22.576Z,6.80
2022-11-20T05:47:03.655Z,7.00
2022-11-20T05:49:51.572Z,6.90
2022-11-20T05:52:33.681Z,7.00
2022-11-20T05:55:22.446Z,6.90
2022-11-20T05:58:04.749Z,6.80
2022-11-20T06:00:53.468Z,6.90
2022-11-20T06:03:34.753Z,7.00
2022-11-20T06:06:23.527Z,7.10
2022-11-20T06:09:04.731Z,7.50
2022-11-20T06:11:52.464Z,7.30
2022-11-20T06:14:40.549Z,7.10
2022-11-20T06:17:23.269Z,6.90
2022-11-20T06:20:10.468Z,6.90
2022-11-20T06:22:51.896Z,7.00
2022-11-20T06:25:39.552Z,7.10
2022-11-20T06:28:20.916Z,7.00
2022-11-20T06:31:08.580Z,7.50
2022-11-20T06:33:51.801Z,7.20
2022-11-20T06:36:39.475Z,7.10
2022-11-20T06:39:21.206Z,7.20
2022-11-20T06:42:09.505Z,7.20
2022-11-20T06:44:57.586Z,7.20
2022-11-20T06:47:38.765Z,7.20
2022-11-20T06:50:27.489Z,7.20
2022-11-20T06:53:09.689Z,7.10
2022-11-20T06:55:57.477Z,6.90
2022-11-20T06:58:39.689Z,6.90
2022-11-20T07:01:27.553Z,6.80
2022-11-20T07:04:08.664Z,6.80
2022-11-20T07:06:58.533Z,6.90
2022-11-20T07:09:46.492Z,6.90
2022-11-20T07:12:27.843Z,7.10
2022-11-20T07:15:16.514Z,7.20
2022-11-20T07:18:00.360Z,7.20
2022-11-20T07:20:48.509Z,7.30
2022-11-20T07:23:31.290Z,7.40
2022-11-20T07:26:19.468Z,7.00
2022-11-20T07:29:00.995Z,7.30
2022-11-20T07:31:48.497Z,7.50
2022-11-20T07:34:29.995Z,7.90
2022-11-20T07:37:17.501Z,8.30
2022-11-20T07:40:13.493Z,8.40
2022-11-20T07:42:55.823Z,8.60
2022-11-20T07:45:43.483Z,8.70
2022-11-20T07:48:24.973Z,8.70
2022-11-20T07:51:12.518Z,8.40
2022-11-20T07:53:53.993Z,8.10
2022-11-20T07:56:43.509Z,8.10
2022-11-20T07:59:24.998Z,8.40
2022-11-20T08:02:12.548Z,8.20
2022-11-20T08:04:53.845Z,8.20
2022-11-20T08:07:41.675Z,7.90
2022-11-20T08:10:29.564Z,8.20
2022-11-20T08:13:30.195Z,7.90
2022-11-20T08:16:17.554Z,7.60
2022-11-20T08:18:58.717Z,7.60
2022-11-20T08:21:46.577Z,7.60
2022-11-20T08:24:27.761Z,7.50
2022-11-20T08:27:15.681Z,7.50
2022-11-20T08:29:58.699Z,7.70
2022-11-20T08:32:46.606Z,7.70
2022-11-20T08:35:27.739Z,8.20
2022-11-20T08:38:15.618Z,8.30
2022-11-20T08:41:17.526Z,8.40
2022-11-20T08:43:59.729Z,8.40
2022-11-20T08:46:50.499Z,8.30
2022-11-20T08:49:31.860Z,8.50
2022-11-20T08:52:19.553Z,8.50
2022-11-20T08:55:14.544Z,8.40
2022-11-20T08:58:02.588Z,8.30
2022-11-20T09:00:44.193Z,8.50
2022-11-20T09:03:34.598Z,8.70
2022-11-20T09:06:16.784Z,8.80
2022-11-20T09:09:06.794Z,9.00
2022-11-20T09:11:57.538Z,8.90
2022-11-20T09:14:39.309Z,8.70
2022-11-20T09:17:27.544Z,8.70
2022-11-20T09:20:10.873Z,9.10
2022-11-20T09:22:58.559Z,9.20
2022-11-20T09:25:40.060Z,9.10
2022-11-20T09:28:27.515Z,8.80
2022-11-20T09:31:09.663Z,8.80
2022-11-20T09:33:57.651Z,9.00
2022-11-20T09:36:40.285Z,9.30
2022-11-20T09:39:27.541Z,9.50
2022-11-20T09:42:36.598Z,9.40
2022-11-20T09:45:27.746Z,10.00
2022-11-20T09:48:23.586Z,10.40
2022-11-20T09:51:07.837Z,10.30
2022-11-20T09:54:02.527Z,10.30
2022-11-20T09:56:59.990Z,10.20
2022-11-20T09:59:48.613Z,9.90
2022-11-20T10:02:54.556Z,9.80
2022-11-20T10:05:44.572Z,10.20
2022-11-20T10:08:30.282Z,10.20
2022-11-20T10:11:22.564Z,10.20
2022-11-20T10:14:06.784Z,10.10
2022-11-20T10:16:59.563Z,10.20
2022-11-20T10:20:02.606Z,10.20
2022-11-20T10:22:53.934Z,10.40
2022-11-20T10:25:49.532Z,10.50
2022-11-20T10:28:57.242Z,10.60
2022-11-20T10:31:48.564Z,10.80
2022-11-20T10:34:33.756Z,10.90
2022-11-20T10:37:27.549Z,10.80
2022-11-20T10:40:20.335Z,10.90
2022-11-20T10:43:09.588Z,10.90
2022-11-20T10:45:56.267Z,11.10
2022-11-20T10:48:46.583Z,10.90
2022-11-20T10:51:33.269Z,11.10
2022-11-20T10:54:20.547Z,11.20
2022-11-20T10:57:19.623Z,11.20
2022-11-20T11:00:05.792Z,11.00
2022-11-20T11:02:58.614Z,10.90
2022-11-20T11:05:42.140Z,10.80
2022-11-20T11:08:32.619Z,10.80
2022-11-20T11:11:20.262Z,10.80
2022-11-20T11:14:07.536Z,10.90
2022-11-20T11:16:52.866Z,10.80
2022-11-20T11:19:42.551Z,10.80
2022-11-20T11:22:24.052Z,10.80
2022-11-20T11:25:11.547Z,10.60
2022-11-20T11:27:53.457Z,10.60
2022-11-20T11:30:35.644Z,10.70
2022-11-20T11:33:25.602Z,10.80
2022-11-20T11:36:22.236Z,10.70
2022-11-20T11:39:09.606Z,10.80
2022-11-20T11:41:51.189Z,10.90
2022-11-20T11:44:58.553Z,10.90
2022-11-20T11:47:46.220Z,10.80
2022-11-20T11:50:35.591Z,10.80
2022-11-20T11:53:19.274Z,10.80
2022-11-20T11:56:10.638Z,10.80
2022-11-20T11:58:53.546Z,10.80
2022-11-20T12:01:45.776Z,10.90
2022-11-20T12:04:46.567Z,10.90
2022-11-20T12:07:46.019Z,10.90
2022-11-20T12:10:45.681Z,10.80
2022-11-20T12:13:31.831Z,10.50
2022-11-20T12:16:20.602Z,10.50
2022-11-20T12:19:03.882Z,10.40
2022-11-20T12:22:04.148Z,10.40
2022-11-20T12:24:50.770Z,10.40
2022-11-20T12:27:51.602Z,10.30
2022-11-20T12:30:32.918Z,10.20
2022-11-20T12:33:38.627Z,10.20
2022-11-20T12:36:25.833Z,10.30
2022-11-20T12:39:22.904Z,10.40
2022-11-20T12:42:37.638Z,10.30
2022-11-20T12:45:30.743Z,10.30
2022-11-20T12:48:27.664Z,10.30
2022-11-20T12:51:17.286Z,10.40
2022-11-20T12:54:10.611Z,10.10
2022-11-20T12:57:03.968Z,10.00
2022-11-20T12:59:54.601Z,10.20
2022-11-20T13:02:46.763Z,10.20
2022-11-20T13:05:30.631Z,10.20
2022-11-20T13:08:17.285Z,10.20
2022-11-20T13:11:07.580Z,10.20
2022-11-20T13:14:06.464Z,10.20
2022-11-20T13:17:04.760Z,10.30
2022-11-20T13:19:52.510Z,10.40
2022-11-20T13:22:41.705Z,10.40
2022-11-20T13:25:26.603Z,10.50
2022-11-20T13:28:15.656Z,10.40
2022-11-20T13:30:58.100Z,10.30
2022-11-20T13:33:46.616Z,10.30
2022-11-20T13:36:30.229Z,10.20
2022-11-20T13:39:18.590Z,10.10
2022-11-20T13:42:07.693Z,10.10
2022-11-20T13:44:50.856Z,10.20
2022-11-20T13:47:38.623Z,10.20
2022-11-20T13:50:22.798Z,10.00
2022-11-20T13:53:17.739Z,10.10
2022-11-20T13:56:15.698Z,10.10
2022-11-20T13:59:13.469Z,10.00
2022-11-20T14:01:56.765Z,9.80
2022-11-20T14:04:49.665Z,9.90
2022-11-20T14:07:33.081Z,10.00
2022-11-20T14:10:32.064Z,10.00
2022-11-20T14:13:24.799Z,9.90
2022-11-20T14:16:12.596Z,10.00
2022-11-20T14:18:53.785Z,10.10
2022-11-20T14:21:41.668Z,9.90
2022-11-20T14:24:28.074Z,9.90
2022-11-20T14:27:21.605Z,10.00
2022-11-20T14:30:09.635Z,10.00
2022-11-20T14:32:51.526Z,9.90
2022-11-20T14:35:41.654Z,9.80
2022-11-20T14:38:26.085Z,9.70
2022-11-20T14:41:21.696Z,9.80
2022-11-20T14:44:05.035Z,9.90
2022-11-20T14:46:52.625Z,9.90
2022-11-20T14:49:34.253Z,9.80
2022-11-20T14:52:27.692Z,9.80
2022-11-20T14:55:23.707Z,9.80
2022-11-20T14:58:12.661Z,10.00
2022-11-20T15:01:01.879Z,9.90
2022-11-20T15:03:49.683Z,9.90
2022-11-20T15:06:41.746Z,9.80
2022-11-20T15:09:23.510Z,9.70
2022-11-20T15:12:13.638Z,9.70
2022-11-20T15:14:55.211Z,9.80
2022-11-20T15:17:44.733Z,9.90
2022-11-20T15:20:27.968Z,10.10
2022-11-20T15:23:15.825Z,10.00
2022-11-20T15:25:57.545Z,10.10
2022-11-20T15:28:46.659Z,10.20
2022-11-20T15:31:28.091Z,10.20
2022-11-20T15:34:17.680Z,10.30
2022-11-20T15:37:00.567Z,10.30
2022-11-20T15:39:41.655Z,10.30
2022-11-20T15:42:30.735Z,10.20
2022-11-20T15:45:12.131Z,10.30
2022-11-20T15:47:59.746Z,10.30
2022-11-20T15:50:45.827Z,10.40
2022-11-20T15:53:34.716Z,10.40
2022-11-20T15:56:30.715Z,10.50
2022-11-20T15:59:19.681Z,10.60
2022-11-20T16:02:00.918Z,10.50
2022-11-20T16:04:48.682Z,10.50
2022-11-20T16:07:38.705Z,10.50
2022-11-20T16:10:20.323Z,10.60
2022-11-20T16:13:24.754Z,10.60
2022-11-20T16:16:07.789Z,10.70
2022-11-20T16:18:55.675Z,10.70
2022-11-20T16:21:38.512Z,10.60
2022-11-20T16:24:28.716Z,10.70
2022-11-20T16:27:11.462Z,10.70
2022-11-20T16:29:58.732Z,10.70
2022-11-20T16:32:40.737Z,10.70
2022-11-20T16:35:28.792Z,10.70
2022-11-20T16:38:16.796Z,10.70
2022-11-20T16:40:59.960Z,10.70
2022-11-20T16:43:52.758Z,10.80
2022-11-20T16:46:34.973Z,10.60
2022-11-20T16:49:23.778Z,10.70
2022-11-20T16:52:04.926Z,10.80
2022-11-20T16:54:52.752Z,10.70
2022-11-20T16:57:42.753Z,10.80
2022-11-20T17:00:24.782Z,10.80
2022-11-20T17:03:06.225Z,10.80
2022-11-20T17:05:53.778Z,10.70
2022-11-20T17:08:41.689Z,10.60
2022-11-20T17:11:33.956Z,10.50
2022-11-20T17:14:23.991Z,10.60
2022-11-20T17:17:04.979Z,10.60
2022-11-20T17:19:52.771Z,10.60
2022-11-20T17:22:33.953Z,10.80
2022-11-20T17:25:22.654Z,10.70
2022-11-20T17:28:03.857Z,10.80
2022-11-20T17:30:52.773Z,10.90
2022-11-20T17:33:41.672Z,10.90
2022-11-20T17:36:23.385Z,11.00
2022-11-20T17:39:10.700Z,10.80
2022-11-20T17:42:05.973Z,10.80
2022-11-20T17:44:53.716Z,10.60
2022-11-20T17:47:37.793Z,10.50
2022-11-20T17:50:26.709Z,10.20
2022-11-20T17:53:08.402Z,10.10
2022-11-20T17:56:13.697Z,9.90
2022-11-20T17:59:08.771Z,10.00
2022-11-20T18:01:50.318Z,9.90
2022-11-20T18:04:39.790Z,9.60
2022-11-20T18:07:21.386Z,9.50
2022-11-20T18:10:08.712Z,9.40
2022-11-20T18:12:53.509Z,9.40
2022-11-20T18:15:41.691Z,9.30
2022-11-20T18:18:23.394Z,9.30
2022-11-20T18:21:12.792Z,9.30
2022-11-20T18:23:54.227Z,9.30
2022-11-20T18:26:44.516Z,9.50
2022-11-20T18:29:26.892Z,9.50
2022-11-20T18:32:14.853Z,9.60
2022-11-20T18:34:56.434Z,9.60
2022-11-20T18:37:45.896Z,9.70
2022-11-20T18:40:33.682Z,9.90
2022-11-20T18:43:40.907Z,9.80
2022-11-20T18:46:28.833Z,9.80
2022-11-20T18:49:09.858Z,9.70
2022-11-20T18:51:57.724Z,9.80
2022-11-20T18:54:42.897Z,9.70
2022-11-20T18:57:31.712Z,9.70
2022-11-20T19:00:14.896Z,9.80
2022-11-20T19:03:02.663Z,9.80
2022-11-20T19:05:50.698Z,9.90
2022-11-20T19:08:34.925Z,9.90
2022-11-20T19:11:24.692Z,10.00
2022-11-20T19:14:06.340Z,10.00
2022-11-20T19:16:54.713Z,10.00
2022-11-20T19:19:36.585Z,9.90
2022-11-20T19:22:24.715Z,9.90
2022-11-20T19:25:06.472Z,9.90
2022-11-20T19:27:55.679Z,9.80
2022-11-20T19:30:43.740Z,9.70
2022-11-20T19:33:24.823Z,9.70
2022-11-20T19:36:16.754Z,9.70
2022-11-20T19:38:59.359Z,9.60
2022-11-20T19:41:47.710Z,9.70
2022-11-20T19:44:32.191Z,9.90
2022-11-20T19:47:19.714Z,9.80
2022-11-20T19:50:00.951Z,9.80
2022-11-20T19:52:49.793Z,10.00
2022-11-20T19:55:33.075Z,10.00
2022-11-20T19:58:20.785Z,9.90
2022-11-20T20:01:10.756Z,9.80
2022-11-20T20:03:52.545Z,9.60
2022-11-20T20:06:40.762Z,9.70
2022-11-20T20:09:23.695Z,9.70
2022-11-20T20:12:11.784Z,9.60
2022-11-20T20:14:53.279Z,9.50
2022-11-20T20:17:42.806Z,9.50
2022-11-20T20:20:24.492Z,9.50
2022-11-20T20:23:13.945Z,9.60
2022-11-20T20:25:56.214Z,9.60
2022-11-20T20:28:43.717Z,9.60
2022-11-20T20:31:26.569Z,9.50
2022-11-20T20:34:16.708Z,9.50
2022-11-20T20:37:04.740Z,9.40
2022-11-20T20:39:45.967Z,9.30
2022-11-20T20:42:33.829Z,9.20
2022-11-20T20:45:17.157Z,9.30
2022-11-20T20:48:04.742Z,9.30
2022-11-20T20:50:48.021Z,9.20
2022-11-20T20:53:37.805Z,9.10
2022-11-20T20:56:18.934Z,9.20
2022-11-20T20:59:06.715Z,9.10
2022-11-20T21:01:49.133Z,9.10
2022-11-20T21:04:36.755Z,9.00
2022-11-20T21:07:26.857Z,8.90
2022-11-20T21:10:08.296Z,9.10
2022-11-20T21:12:55.726Z,9.20
2022-11-20T21:15:39.662Z,9.30
2022-11-20T21:18:27.770Z,9.30
2022-11-20T21:21:27.521Z,9.30
2022-11-20T21:24:16.746Z,9.20
2022-11-20T21:26:58.920Z,9.20
2022-11-20T21:29:46.804Z,9.20
2022-11-20T21:32:37.811Z,9.30
2022-11-20T21:35:19.265Z,9.30
2022-11-20T21:38:06.814Z,9.40
2022-11-20T21:40:51.019Z,9.40
2022-11-20T21:43:38.745Z,9.30
2022-11-20T21:46:21.029Z,9.30
2022-11-20T21:49:08.757Z,9.30
2022-11-20T21:51:50.023Z,9.20
2022-11-20T21:54:37.810Z,9.30
2022-11-20T21:57:20.908Z,9.40
2022-11-20T22:00:08.765Z,9.40
2022-11-20T22:02:56.738Z,9.30
2022-11-20T22:05:38.325Z,9.20
2022-11-20T22:08:25.749Z,9.40
2022-11-20T22:11:08.176Z,9.40
2022-11-20T22:14:14.821Z,9.40
2022-11-20T22:16:56.109Z,9.30
2022-11-20T22:19:43.829Z,9.10
2022-11-20T22:22:25.181Z,9.10
2022-11-20T22:25:12.791Z,9.10
2022-11-20T22:28:00.734Z,9.20
2022-11-20T22:30:43.999Z,9.20
2022-11-20T22:33:31.755Z,9.20
2022-11-20T22:36:15.923Z,9.30
2022-11-20T22:39:03.792Z,9.30
2022-11-20T22:41:44.970Z,9.20
2022-11-20T22:44:32.749Z,9.10
2022-11-20T22:47:16.217Z,9.00
2022-11-20T22:50:03.777Z,9.10
2022-11-20T22:52:45.966Z,9.20
2022-11-20T22:55:34.748Z,9.10
2022-11-20T22:58:30.755Z,9.10
2022-11-20T23:01:12.992Z,9.20
2022-11-20T23:04:03.735Z,9.20
2022-11-20T23:06:45.160Z,9.30
2022-11-20T23:09:32.778Z,9.30
2022-11-20T23:12:14.906Z,9.40
2022-11-20T23:15:02.779Z,9.20
2022-11-20T23:17:44.119Z,9.30
2022-11-20T23:20:33.776Z,9.30
2022-11-20T23:23:28.763Z,9.40
2022-11-20T23:26:11.613Z,9.40
2022-11-20T23:29:00.813Z,9.30
2022-11-20T23:31:42.167Z,9.30
2022-11-20T23:34:30.833Z,9.20
2022-11-20T23:37:13.462Z,9.20
2022-11-20T23:40:00.817Z,9.10
2022-11-20T23:43:02.331Z,9.20
2022-11-20T23:45:52.814Z,9.20
2022-11-20T23:48:41.749Z,9.30
2022-11-20T23:51:24.024Z,9.20
2022-11-20T23:54:12.811Z,9.50
2022-11-20T23:56:53.990Z,9.60
2022-11-20T23:59:41.825Z,9.50
